sensor_id;sensor_type;location;lat;lon;timestamp;pressure;altitude;pressure_sealevel;temperature;humidity
23361;BME280;11852;50.082;18.554;2024-03-29T00:00:59;97275.0;;;8.7;100.0
23361;BME280;11852;50.082;18.554;2024-03-29T00:02:05;97282.0;;;8.72;100.0
23361;BME280;11852;50.082;18.554;2024-03-29T00:03:10;97283.0;;;8.64;100.0
23361;BME280;11852;50.082;18.554;2024-03-29T00:04:14;97284.0;;;8.68;100.0
23361;BME280;11852;50.082;18.554;2024-03-29T00:05:19;97286.0;;;8.62;100.0
23361;BME280;11852;50.082;18.554;2024-03-29T00:06:24;97290.0;;;8.43;100.0
23361;BME280;11852;50.082;18.554;2024-03-29T00:07:30;97294.0;;;8.53;100.0
23361;BME280;11852;50.082;18.554;2024-03-29T00:08:35;97300.0;;;8.52;100.0
23361;BME280;11852;50.082;18.554;2024-03-29T00:09:40;97301.0;;;8.43;100.0
23361;BME280;11852;50.082;18.554;2024-03-29T00:10:46;97307.0;;;8.47;100.0
23361;BME280;11852;50.082;18.554;2024-03-29T00:11:49;97301.0;;;8.41;100.0
23361;BME280;11852;50.082;18.554;2024-03-29T00:12:54;97309.0;;;8.32;100.0
23361;BME280;11852;50.082;18.554;2024-03-29T00:13:59;97301.0;;;8.45;100.0
23361;BME280;11852;50.082;18.554;2024-03-29T00:15:04;97304.0;;;8.5;100.0
23361;BME280;11852;50.082;18.554;2024-03-29T00:16:09;97305.0;;;8.46;100.0
23361;BME280;11852;50.082;18.554;2024-03-29T00:17:14;97310.0;;;8.35;100.0
23361;BME280;11852;50.082;18.554;2024-03-29T00:18:19;97313.0;;;8.33;100.0
23361;BME280;11852;50.082;18.554;2024-03-29T00:19:24;97318.0;;;8.38;100.0
23361;BME280;11852;50.082;18.554;2024-03-29T00:20:29;97320.0;;;8.43;100.0
23361;BME280;11852;50.082;18.554;2024-03-29T00:21:34;97326.0;;;8.37;100.0
23361;BME280;11852;50.082;18.554;2024-03-29T00:22:38;97326.0;;;8.42;100.0
23361;BME280;11852;50.082;18.554;2024-03-29T00:23:43;97324.0;;;8.38;100.0
23361;BME280;11852;50.082;18.554;2024-03-29T00:24:48;97328.0;;;8.32;100.0
23361;BME280;11852;50.082;18.554;2024-03-29T00:25:53;97326.0;;;8.09;100.0
23361;BME280;11852;50.082;18.554;2024-03-29T00:26:58;97329.0;;;8.06;100.0
23361;BME280;11852;50.082;18.554;2024-03-29T00:28:03;97331.0;;;8.19;100.0
23361;BME280;11852;50.082;18.554;2024-03-29T00:29:08;97336.0;;;7.86;100.0
23361;BME280;11852;50.082;18.554;2024-03-29T00:30:13;97335.0;;;8.01;100.0
23361;BME280;11852;50.082;18.554;2024-03-29T00:31:18;97337.0;;;8.09;100.0
23361;BME280;11852;50.082;18.554;2024-03-29T00:32:22;97341.0;;;7.97;100.0
23361;BME280;11852;50.082;18.554;2024-03-29T00:33:27;97344.0;;;7.98;100.0
23361;BME280;11852;50.082;18.554;2024-03-29T00:34:32;97348.0;;;8.06;100.0
23361;BME280;11852;50.082;18.554;2024-03-29T00:35:37;97348.0;;;8.0;100.0
23361;BME280;11852;50.082;18.554;2024-03-29T00:36:42;97351.0;;;8.03;100.0
23361;BME280;11852;50.082;18.554;2024-03-29T00:37:47;97354.0;;;7.92;100.0
23361;BME280;11852;50.082;18.554;2024-03-29T00:38:51;97356.0;;;7.85;100.0
23361;BME280;11852;50.082;18.554;2024-03-29T00:39:56;97353.0;;;7.8;100.0
23361;BME280;11852;50.082;18.554;2024-03-29T00:41:01;97360.0;;;7.97;100.0
23361;BME280;11852;50.082;18.554;2024-03-29T00:42:06;97361.0;;;7.95;100.0
23361;BME280;11852;50.082;18.554;2024-03-29T00:43:11;97361.0;;;7.93;100.0
23361;BME280;11852;50.082;18.554;2024-03-29T00:44:16;97363.0;;;7.88;100.0
23361;BME280;11852;50.082;18.554;2024-03-29T00:45:21;97365.0;;;7.92;100.0
23361;BME280;11852;50.082;18.554;2024-03-29T00:46:25;97367.0;;;7.91;100.0
23361;BME280;11852;50.082;18.554;2024-03-29T00:47:30;97370.0;;;7.89;100.0
23361;BME280;11852;50.082;18.554;2024-03-29T00:48:35;97371.0;;;7.75;100.0
23361;BME280;11852;50.082;18.554;2024-03-29T00:49:43;97379.0;;;7.82;100.0
23361;BME280;11852;50.082;18.554;2024-03-29T00:50:48;97380.0;;;7.88;100.0
23361;BME280;11852;50.082;18.554;2024-03-29T00:51:53;97381.0;;;7.96;100.0
23361;BME280;11852;50.082;18.554;2024-03-29T00:52:58;97384.0;;;7.76;100.0
23361;BME280;11852;50.082;18.554;2024-03-29T00:54:02;97386.0;;;7.68;100.0
23361;BME280;11852;50.082;18.554;2024-03-29T00:55:07;97393.0;;;7.64;100.0
23361;BME280;11852;50.082;18.554;2024-03-29T00:56:12;97398.0;;;7.56;100.0
23361;BME280;11852;50.082;18.554;2024-03-29T00:57:17;97400.0;;;7.7;100.0
23361;BME280;11852;50.082;18.554;2024-03-29T00:58:22;97407.0;;;7.6;100.0
23361;BME280;11852;50.082;18.554;2024-03-29T00:59:27;97405.0;;;7.46;100.0
23361;BME280;11852;50.082;18.554;2024-03-29T01:00:32;97410.0;;;7.64;100.0
23361;BME280;11852;50.082;18.554;2024-03-29T01:01:37;97408.0;;;7.51;100.0
23361;BME280;11852;50.082;18.554;2024-03-29T01:02:42;97411.0;;;7.64;100.0
23361;BME280;11852;50.082;18.554;2024-03-29T01:03:47;97416.0;;;7.44;100.0
23361;BME280;11852;50.082;18.554;2024-03-29T01:04:52;97422.0;;;7.58;100.0
23361;BME280;11852;50.082;18.554;2024-03-29T01:05:57;97428.0;;;7.65;100.0
23361;BME280;11852;50.082;18.554;2024-03-29T01:07:01;97434.0;;;7.6;100.0
23361;BME280;11852;50.082;18.554;2024-03-29T01:08:06;97440.0;;;7.67;100.0
23361;BME280;11852;50.082;18.554;2024-03-29T01:09:11;97441.0;;;7.27;100.0
23361;BME280;11852;50.082;18.554;2024-03-29T01:10:16;97446.0;;;7.24;100.0
23361;BME280;11852;50.082;18.554;2024-03-29T01:11:21;97441.0;;;7.34;100.0
23361;BME280;11852;50.082;18.554;2024-03-29T01:12:26;97441.0;;;7.47;100.0
23361;BME280;11852;50.082;18.554;2024-03-29T01:13:30;97437.0;;;7.59;100.0
23361;BME280;11852;50.082;18.554;2024-03-29T01:14:35;97443.0;;;7.62;100.0
23361;BME280;11852;50.082;18.554;2024-03-29T01:15:40;97445.0;;;7.72;100.0
23361;BME280;11852;50.082;18.554;2024-03-29T01:16:45;97442.0;;;7.45;100.0
23361;BME280;11852;50.082;18.554;2024-03-29T01:17:50;97442.0;;;7.52;100.0
23361;BME280;11852;50.082;18.554;2024-03-29T01:18:55;97444.0;;;7.52;100.0
23361;BME280;11852;50.082;18.554;2024-03-29T01:20:00;97447.0;;;7.62;100.0
23361;BME280;11852;50.082;18.554;2024-03-29T01:21:04;97455.0;;;7.6;100.0
23361;BME280;11852;50.082;18.554;2024-03-29T01:22:09;97453.0;;;7.67;100.0
23361;BME280;11852;50.082;18.554;2024-03-29T01:23:14;97460.0;;;7.76;100.0
23361;BME280;11852;50.082;18.554;2024-03-29T01:24:19;97463.0;;;7.57;100.0
23361;BME280;11852;50.082;18.554;2024-03-29T01:25:27;97463.0;;;7.68;100.0
23361;BME280;11852;50.082;18.554;2024-03-29T01:26:32;97468.0;;;7.65;100.0
23361;BME280;11852;50.082;18.554;2024-03-29T01:27:36;97472.0;;;7.52;100.0
23361;BME280;11852;50.082;18.554;2024-03-29T01:28:41;97475.0;;;7.46;100.0
23361;BME280;11852;50.082;18.554;2024-03-29T01:29:46;97478.0;;;7.61;100.0
23361;BME280;11852;50.082;18.554;2024-03-29T01:30:54;97485.0;;;7.5;100.0
23361;BME280;11852;50.082;18.554;2024-03-29T01:32:01;97487.0;;;7.52;100.0
23361;BME280;11852;50.082;18.554;2024-03-29T01:33:06;97482.0;;;7.5;100.0
23361;BME280;11852;50.082;18.554;2024-03-29T01:34:11;97481.0;;;7.51;100.0
23361;BME280;11852;50.082;18.554;2024-03-29T01:35:16;97484.0;;;7.51;100.0
23361;BME280;11852;50.082;18.554;2024-03-29T01:36:21;97484.0;;;7.47;100.0
23361;BME280;11852;50.082;18.554;2024-03-29T01:37:26;97489.0;;;7.52;100.0
23361;BME280;11852;50.082;18.554;2024-03-29T01:38:31;97490.0;;;7.49;100.0
23361;BME280;11852;50.082;18.554;2024-03-29T01:39:36;97493.0;;;7.25;100.0
23361;BME280;11852;50.082;18.554;2024-03-29T01:40:40;97493.0;;;7.31;100.0
23361;BME280;11852;50.082;18.554;2024-03-29T01:41:45;97494.0;;;7.3;100.0
23361;BME280;11852;50.082;18.554;2024-03-29T01:42:53;97497.0;;;7.46;100.0
23361;BME280;11852;50.082;18.554;2024-03-29T01:43:58;97503.0;;;7.48;100.0
23361;BME280;11852;50.082;18.554;2024-03-29T01:45:02;97507.0;;;7.43;100.0
23361;BME280;11852;50.082;18.554;2024-03-29T01:46:07;97511.0;;;7.31;100.0
23361;BME280;11852;50.082;18.554;2024-03-29T01:47:12;97513.0;;;7.38;100.0
23361;BME280;11852;50.082;18.554;2024-03-29T01:48:17;97513.0;;;7.31;100.0
23361;BME280;11852;50.082;18.554;2024-03-29T01:49:22;97519.0;;;7.37;100.0
23361;BME280;11852;50.082;18.554;2024-03-29T01:50:27;97520.0;;;7.4;100.0
23361;BME280;11852;50.082;18.554;2024-03-29T01:51:31;97519.0;;;7.41;100.0
23361;BME280;11852;50.082;18.554;2024-03-29T01:52:36;97524.0;;;7.44;100.0
23361;BME280;11852;50.082;18.554;2024-03-29T01:53:41;97521.0;;;7.51;100.0
23361;BME280;11852;50.082;18.554;2024-03-29T01:54:46;97519.0;;;7.52;100.0
23361;BME280;11852;50.082;18.554;2024-03-29T01:55:51;97523.0;;;7.4;100.0
23361;BME280;11852;50.082;18.554;2024-03-29T01:56:56;97526.0;;;7.45;100.0
23361;BME280;11852;50.082;18.554;2024-03-29T01:58:01;97527.0;;;7.49;100.0
23361;BME280;11852;50.082;18.554;2024-03-29T01:59:06;97528.0;;;7.42;100.0
23361;BME280;11852;50.082;18.554;2024-03-29T02:00:11;97534.0;;;7.39;100.0
23361;BME280;11852;50.082;18.554;2024-03-29T02:01:16;97533.0;;;7.44;100.0
23361;BME280;11852;50.082;18.554;2024-03-29T02:02:21;97542.0;;;7.34;100.0
23361;BME280;11852;50.082;18.554;2024-03-29T02:03:26;97540.0;;;7.35;100.0
23361;BME280;11852;50.082;18.554;2024-03-29T02:04:30;97544.0;;;7.19;100.0
23361;BME280;11852;50.082;18.554;2024-03-29T02:05:36;97546.0;;;7.15;100.0
23361;BME280;11852;50.082;18.554;2024-03-29T02:06:40;97548.0;;;7.0;100.0
23361;BME280;11852;50.082;18.554;2024-03-29T02:07:45;97556.0;;;7.07;100.0
23361;BME280;11852;50.082;18.554;2024-03-29T02:08:51;97560.0;;;7.21;100.0
23361;BME280;11852;50.082;18.554;2024-03-29T02:09:55;97565.0;;;7.07;100.0
23361;BME280;11852;50.082;18.554;2024-03-29T02:11:00;97569.0;;;6.96;100.0
23361;BME280;11852;50.082;18.554;2024-03-29T02:12:05;97570.0;;;7.13;100.0
23361;BME280;11852;50.082;18.554;2024-03-29T02:13:12;97574.0;;;7.08;100.0
23361;BME280;11852;50.082;18.554;2024-03-29T02:14:17;97577.0;;;7.12;100.0
23361;BME280;11852;50.082;18.554;2024-03-29T02:15:22;97579.0;;;7.21;100.0
23361;BME280;11852;50.082;18.554;2024-03-29T02:16:27;97579.0;;;7.19;100.0
23361;BME280;11852;50.082;18.554;2024-03-29T02:17:32;97581.0;;;7.09;100.0
23361;BME280;11852;50.082;18.554;2024-03-29T02:18:36;97585.0;;;7.06;100.0
23361;BME280;11852;50.082;18.554;2024-03-29T02:19:41;97584.0;;;6.95;100.0
23361;BME280;11852;50.082;18.554;2024-03-29T02:20:46;97584.0;;;7.01;100.0
23361;BME280;11852;50.082;18.554;2024-03-29T02:21:51;97586.0;;;6.99;100.0
23361;BME280;11852;50.082;18.554;2024-03-29T02:23:00;97592.0;;;7.08;100.0
23361;BME280;11852;50.082;18.554;2024-03-29T02:24:07;97594.0;;;6.93;100.0
23361;BME280;11852;50.082;18.554;2024-03-29T02:25:12;97598.0;;;6.96;100.0
23361;BME280;11852;50.082;18.554;2024-03-29T02:26:16;97599.0;;;7.03;100.0
23361;BME280;11852;50.082;18.554;2024-03-29T02:27:21;97599.0;;;7.0;100.0
23361;BME280;11852;50.082;18.554;2024-03-29T02:28:26;97600.0;;;6.96;100.0
23361;BME280;11852;50.082;18.554;2024-03-29T02:29:31;97601.0;;;6.96;100.0
23361;BME280;11852;50.082;18.554;2024-03-29T02:30:36;97602.0;;;6.96;100.0
23361;BME280;11852;50.082;18.554;2024-03-29T02:31:41;97604.0;;;7.02;100.0
23361;BME280;11852;50.082;18.554;2024-03-29T02:32:46;97601.0;;;6.91;100.0
23361;BME280;11852;50.082;18.554;2024-03-29T02:33:50;97601.0;;;6.83;100.0
23361;BME280;11852;50.082;18.554;2024-03-29T02:34:55;97601.0;;;6.84;100.0
23361;BME280;11852;50.082;18.554;2024-03-29T02:36:00;97600.0;;;6.71;100.0
23361;BME280;11852;50.082;18.554;2024-03-29T02:37:05;97604.0;;;6.74;100.0
23361;BME280;11852;50.082;18.554;2024-03-29T02:38:10;97602.0;;;6.77;100.0
23361;BME280;11852;50.082;18.554;2024-03-29T02:39:15;97604.0;;;6.8;100.0
23361;BME280;11852;50.082;18.554;2024-03-29T02:40:20;97605.0;;;6.88;100.0
23361;BME280;11852;50.082;18.554;2024-03-29T02:41:25;97608.0;;;6.94;100.0
23361;BME280;11852;50.082;18.554;2024-03-29T02:42:29;97606.0;;;6.98;100.0
23361;BME280;11852;50.082;18.554;2024-03-29T02:43:34;97608.0;;;6.95;100.0
23361;BME280;11852;50.082;18.554;2024-03-29T02:44:39;97609.0;;;6.98;100.0
23361;BME280;11852;50.082;18.554;2024-03-29T02:45:44;97606.0;;;6.92;100.0
23361;BME280;11852;50.082;18.554;2024-03-29T02:46:49;97615.0;;;6.88;100.0
23361;BME280;11852;50.082;18.554;2024-03-29T02:47:54;97614.0;;;6.79;100.0
23361;BME280;11852;50.082;18.554;2024-03-29T02:48:58;97614.0;;;6.77;100.0
23361;BME280;11852;50.082;18.554;2024-03-29T02:50:05;97620.0;;;6.74;100.0
23361;BME280;11852;50.082;18.554;2024-03-29T02:51:08;97616.0;;;6.7;100.0
23361;BME280;11852;50.082;18.554;2024-03-29T02:52:13;97618.0;;;6.74;100.0
23361;BME280;11852;50.082;18.554;2024-03-29T02:53:18;97622.0;;;6.84;100.0
23361;BME280;11852;50.082;18.554;2024-03-29T02:54:23;97631.0;;;6.89;100.0
23361;BME280;11852;50.082;18.554;2024-03-29T02:55:28;97627.0;;;6.74;100.0
23361;BME280;11852;50.082;18.554;2024-03-29T02:56:33;97628.0;;;6.54;100.0
23361;BME280;11852;50.082;18.554;2024-03-29T02:57:38;97624.0;;;6.67;100.0
23361;BME280;11852;50.082;18.554;2024-03-29T02:58:42;97623.0;;;6.75;100.0
23361;BME280;11852;50.082;18.554;2024-03-29T02:59:47;97626.0;;;6.69;100.0
23361;BME280;11852;50.082;18.554;2024-03-29T03:00:52;97620.0;;;6.75;100.0
23361;BME280;11852;50.082;18.554;2024-03-29T03:01:57;97620.0;;;6.83;100.0
23361;BME280;11852;50.082;18.554;2024-03-29T03:03:02;97618.0;;;6.78;100.0
23361;BME280;11852;50.082;18.554;2024-03-29T03:04:07;97626.0;;;6.73;100.0
23361;BME280;11852;50.082;18.554;2024-03-29T03:05:12;97628.0;;;6.74;100.0
23361;BME280;11852;50.082;18.554;2024-03-29T03:06:17;97626.0;;;6.67;100.0
23361;BME280;11852;50.082;18.554;2024-03-29T03:07:27;97621.0;;;6.7;100.0
23361;BME280;11852;50.082;18.554;2024-03-29T03:08:36;97621.0;;;6.61;100.0
23361;BME280;11852;50.082;18.554;2024-03-29T03:09:46;97621.0;;;6.63;100.0
23361;BME280;11852;50.082;18.554;2024-03-29T03:10:56;97623.0;;;6.57;100.0
23361;BME280;11852;50.082;18.554;2024-03-29T03:12:01;97618.0;;;6.68;100.0
23361;BME280;11852;50.082;18.554;2024-03-29T03:13:06;97615.0;;;6.76;100.0
23361;BME280;11852;50.082;18.554;2024-03-29T03:14:10;97617.0;;;6.77;100.0
23361;BME280;11852;50.082;18.554;2024-03-29T03:15:15;97617.0;;;6.63;100.0
23361;BME280;11852;50.082;18.554;2024-03-29T03:16:20;97617.0;;;6.77;100.0
23361;BME280;11852;50.082;18.554;2024-03-29T03:17:28;97617.0;;;6.77;100.0
23361;BME280;11852;50.082;18.554;2024-03-29T03:18:33;97611.0;;;6.82;100.0
23361;BME280;11852;50.082;18.554;2024-03-29T03:19:38;97614.0;;;6.86;100.0
23361;BME280;11852;50.082;18.554;2024-03-29T03:20:51;97613.0;;;6.9;100.0
23361;BME280;11852;50.082;18.554;2024-03-29T03:21:55;97609.0;;;6.88;100.0
23361;BME280;11852;50.082;18.554;2024-03-29T03:23:00;97614.0;;;6.91;100.0
23361;BME280;11852;50.082;18.554;2024-03-29T03:24:05;97613.0;;;6.86;100.0
23361;BME280;11852;50.082;18.554;2024-03-29T03:25:10;97615.0;;;6.86;100.0
23361;BME280;11852;50.082;18.554;2024-03-29T03:26:15;97609.0;;;6.81;100.0
23361;BME280;11852;50.082;18.554;2024-03-29T03:27:19;97613.0;;;6.83;100.0
23361;BME280;11852;50.082;18.554;2024-03-29T03:28:24;97612.0;;;6.78;100.0
23361;BME280;11852;50.082;18.554;2024-03-29T03:29:29;97604.0;;;6.84;100.0
23361;BME280;11852;50.082;18.554;2024-03-29T03:30:37;97600.0;;;6.84;100.0
23361;BME280;11852;50.082;18.554;2024-03-29T03:31:39;97598.0;;;6.84;100.0
23361;BME280;11852;50.082;18.554;2024-03-29T03:32:44;97604.0;;;6.89;100.0
23361;BME280;11852;50.082;18.554;2024-03-29T03:33:49;97602.0;;;6.79;100.0
23361;BME280;11852;50.082;18.554;2024-03-29T03:34:53;97604.0;;;6.84;100.0
23361;BME280;11852;50.082;18.554;2024-03-29T03:35:58;97612.0;;;6.83;100.0
23361;BME280;11852;50.082;18.554;2024-03-29T03:37:03;97619.0;;;6.82;100.0
23361;BME280;11852;50.082;18.554;2024-03-29T03:38:08;97627.0;;;6.69;100.0
23361;BME280;11852;50.082;18.554;2024-03-29T03:39:13;97625.0;;;6.74;100.0
23361;BME280;11852;50.082;18.554;2024-03-29T03:40:18;97623.0;;;6.75;100.0
23361;BME280;11852;50.082;18.554;2024-03-29T03:41:22;97633.0;;;6.66;100.0
23361;BME280;11852;50.082;18.554;2024-03-29T03:42:27;97630.0;;;6.74;100.0
23361;BME280;11852;50.082;18.554;2024-03-29T03:43:32;97632.0;;;6.63;100.0
23361;BME280;11852;50.082;18.554;2024-03-29T03:44:37;97635.0;;;6.71;100.0
23361;BME280;11852;50.082;18.554;2024-03-29T03:45:42;97633.0;;;6.73;100.0
23361;BME280;11852;50.082;18.554;2024-03-29T03:46:47;97625.0;;;6.78;100.0
23361;BME280;11852;50.082;18.554;2024-03-29T03:47:52;97627.0;;;6.78;100.0
23361;BME280;11852;50.082;18.554;2024-03-29T03:48:57;97625.0;;;6.78;100.0
23361;BME280;11852;50.082;18.554;2024-03-29T03:50:01;97623.0;;;6.76;100.0
23361;BME280;11852;50.082;18.554;2024-03-29T03:51:06;97616.0;;;6.77;100.0
23361;BME280;11852;50.082;18.554;2024-03-29T03:52:11;97615.0;;;6.75;100.0
23361;BME280;11852;50.082;18.554;2024-03-29T03:53:16;97617.0;;;6.73;100.0
23361;BME280;11852;50.082;18.554;2024-03-29T03:54:21;97623.0;;;6.7;100.0
23361;BME280;11852;50.082;18.554;2024-03-29T03:55:26;97619.0;;;6.72;100.0
23361;BME280;11852;50.082;18.554;2024-03-29T03:56:31;97623.0;;;6.7;100.0
23361;BME280;11852;50.082;18.554;2024-03-29T03:57:36;97629.0;;;6.59;100.0
23361;BME280;11852;50.082;18.554;2024-03-29T03:58:41;97630.0;;;6.64;100.0
23361;BME280;11852;50.082;18.554;2024-03-29T03:59:46;97632.0;;;6.7;100.0
23361;BME280;11852;50.082;18.554;2024-03-29T04:00:51;97633.0;;;6.74;100.0
23361;BME280;11852;50.082;18.554;2024-03-29T04:01:56;97630.0;;;6.76;100.0
23361;BME280;11852;50.082;18.554;2024-03-29T04:03:01;97635.0;;;6.79;100.0
23361;BME280;11852;50.082;18.554;2024-03-29T04:04:05;97632.0;;;6.79;100.0
23361;BME280;11852;50.082;18.554;2024-03-29T04:05:13;97633.0;;;6.77;100.0
23361;BME280;11852;50.082;18.554;2024-03-29T04:06:18;97627.0;;;6.74;100.0
23361;BME280;11852;50.082;18.554;2024-03-29T04:07:23;97632.0;;;6.74;100.0
23361;BME280;11852;50.082;18.554;2024-03-29T04:08:28;97627.0;;;6.77;100.0
23361;BME280;11852;50.082;18.554;2024-03-29T04:09:33;97624.0;;;6.77;100.0
23361;BME280;11852;50.082;18.554;2024-03-29T04:10:38;97621.0;;;6.69;100.0
23361;BME280;11852;50.082;18.554;2024-03-29T04:11:43;97624.0;;;6.68;100.0
23361;BME280;11852;50.082;18.554;2024-03-29T04:12:48;97619.0;;;6.67;100.0
23361;BME280;11852;50.082;18.554;2024-03-29T04:13:52;97614.0;;;6.76;100.0
23361;BME280;11852;50.082;18.554;2024-03-29T04:14:57;97617.0;;;6.78;100.0
23361;BME280;11852;50.082;18.554;2024-03-29T04:16:05;97617.0;;;6.81;100.0
23361;BME280;11852;50.082;18.554;2024-03-29T04:17:10;97618.0;;;6.81;100.0
23361;BME280;11852;50.082;18.554;2024-03-29T04:18:15;97637.0;;;6.65;100.0
23361;BME280;11852;50.082;18.554;2024-03-29T04:19:20;97644.0;;;6.6;100.0
23361;BME280;11852;50.082;18.554;2024-03-29T04:20:25;97642.0;;;6.66;100.0
23361;BME280;11852;50.082;18.554;2024-03-29T04:21:29;97655.0;;;6.68;100.0
23361;BME280;11852;50.082;18.554;2024-03-29T04:22:34;97651.0;;;6.71;100.0
23361;BME280;11852;50.082;18.554;2024-03-29T04:23:39;97657.0;;;6.68;100.0
23361;BME280;11852;50.082;18.554;2024-03-29T04:24:44;97661.0;;;6.66;100.0
23361;BME280;11852;50.082;18.554;2024-03-29T04:25:54;97659.0;;;6.65;100.0
23361;BME280;11852;50.082;18.554;2024-03-29T04:26:59;97665.0;;;6.68;100.0
23361;BME280;11852;50.082;18.554;2024-03-29T04:28:04;97668.0;;;6.71;100.0
23361;BME280;11852;50.082;18.554;2024-03-29T04:29:08;97669.0;;;6.69;100.0
23361;BME280;11852;50.082;18.554;2024-03-29T04:30:13;97669.0;;;6.7;100.0
23361;BME280;11852;50.082;18.554;2024-03-29T04:31:18;97672.0;;;6.56;100.0
23361;BME280;11852;50.082;18.554;2024-03-29T04:32:23;97672.0;;;6.65;100.0
23361;BME280;11852;50.082;18.554;2024-03-29T04:33:28;97671.0;;;6.57;100.0
23361;BME280;11852;50.082;18.554;2024-03-29T04:34:33;97672.0;;;6.61;100.0
23361;BME280;11852;50.082;18.554;2024-03-29T04:35:38;97680.0;;;6.58;100.0
23361;BME280;11852;50.082;18.554;2024-03-29T04:36:43;97692.0;;;6.44;100.0
23361;BME280;11852;50.082;18.554;2024-03-29T04:37:47;97703.0;;;6.44;100.0
23361;BME280;11852;50.082;18.554;2024-03-29T04:38:52;97708.0;;;6.45;100.0
23361;BME280;11852;50.082;18.554;2024-03-29T04:39:57;97712.0;;;6.49;100.0
23361;BME280;11852;50.082;18.554;2024-03-29T04:41:02;97711.0;;;6.49;100.0
23361;BME280;11852;50.082;18.554;2024-03-29T04:42:07;97713.0;;;6.54;100.0
23361;BME280;11852;50.082;18.554;2024-03-29T04:43:12;97718.0;;;6.5;100.0
23361;BME280;11852;50.082;18.554;2024-03-29T04:44:25;97715.0;;;6.54;100.0
23361;BME280;11852;50.082;18.554;2024-03-29T04:45:30;97716.0;;;6.55;100.0
23361;BME280;11852;50.082;18.554;2024-03-29T04:46:34;97710.0;;;6.59;100.0
23361;BME280;11852;50.082;18.554;2024-03-29T04:47:39;97705.0;;;6.62;100.0
23361;BME280;11852;50.082;18.554;2024-03-29T04:48:44;97699.0;;;6.66;100.0
23361;BME280;11852;50.082;18.554;2024-03-29T04:49:49;97703.0;;;6.65;100.0
23361;BME280;11852;50.082;18.554;2024-03-29T04:50:54;97699.0;;;6.63;100.0
23361;BME280;11852;50.082;18.554;2024-03-29T04:51:59;97694.0;;;6.56;100.0
23361;BME280;11852;50.082;18.554;2024-03-29T04:53:04;97693.0;;;6.53;100.0
23361;BME280;11852;50.082;18.554;2024-03-29T04:54:08;97700.0;;;6.56;100.0
23361;BME280;11852;50.082;18.554;2024-03-29T04:55:14;97696.0;;;6.62;100.0
23361;BME280;11852;50.082;18.554;2024-03-29T04:56:18;97704.0;;;6.67;100.0
23361;BME280;11852;50.082;18.554;2024-03-29T04:57:23;97708.0;;;6.69;100.0
23361;BME280;11852;50.082;18.554;2024-03-29T04:58:28;97713.0;;;6.57;100.0
23361;BME280;11852;50.082;18.554;2024-03-29T04:59:33;97719.0;;;6.54;100.0
23361;BME280;11852;50.082;18.554;2024-03-29T05:00:38;97721.0;;;6.53;100.0
23361;BME280;11852;50.082;18.554;2024-03-29T05:01:43;97717.0;;;6.52;100.0
23361;BME280;11852;50.082;18.554;2024-03-29T05:02:48;97720.0;;;6.6;100.0
23361;BME280;11852;50.082;18.554;2024-03-29T05:03:53;97714.0;;;6.62;100.0
23361;BME280;11852;50.082;18.554;2024-03-29T05:04:57;97710.0;;;6.67;100.0
23361;BME280;11852;50.082;18.554;2024-03-29T05:06:02;97708.0;;;6.69;100.0
23361;BME280;11852;50.082;18.554;2024-03-29T05:07:07;97701.0;;;6.75;100.0
23361;BME280;11852;50.082;18.554;2024-03-29T05:08:12;97703.0;;;6.69;100.0
23361;BME280;11852;50.082;18.554;2024-03-29T05:09:17;97708.0;;;6.71;100.0
23361;BME280;11852;50.082;18.554;2024-03-29T05:10:22;97711.0;;;6.7;100.0
23361;BME280;11852;50.082;18.554;2024-03-29T05:11:27;97715.0;;;6.64;100.0
23361;BME280;11852;50.082;18.554;2024-03-29T05:12:31;97719.0;;;6.61;100.0
23361;BME280;11852;50.082;18.554;2024-03-29T05:13:36;97721.0;;;6.67;100.0
23361;BME280;11852;50.082;18.554;2024-03-29T05:14:41;97723.0;;;6.68;100.0
23361;BME280;11852;50.082;18.554;2024-03-29T05:15:46;97726.0;;;6.56;100.0
23361;BME280;11852;50.082;18.554;2024-03-29T05:16:54;97723.0;;;6.72;100.0
23361;BME280;11852;50.082;18.554;2024-03-29T05:17:59;97720.0;;;6.81;99.92
23361;BME280;11852;50.082;18.554;2024-03-29T05:19:03;97721.0;;;6.8;99.86
23361;BME280;11852;50.082;18.554;2024-03-29T05:20:09;97721.0;;;6.84;99.68
23361;BME280;11852;50.082;18.554;2024-03-29T05:21:13;97723.0;;;6.56;98.95
23361;BME280;11852;50.082;18.554;2024-03-29T05:22:19;97728.0;;;6.76;98.8
23361;BME280;11852;50.082;18.554;2024-03-29T05:23:23;97730.0;;;6.81;98.66
23361;BME280;11852;50.082;18.554;2024-03-29T05:24:28;97732.0;;;6.79;98.84
23361;BME280;11852;50.082;18.554;2024-03-29T05:25:33;97735.0;;;6.88;98.83
23361;BME280;11852;50.082;18.554;2024-03-29T05:26:38;97740.0;;;6.92;98.61
23361;BME280;11852;50.082;18.554;2024-03-29T05:27:43;97741.0;;;6.95;98.53
23361;BME280;11852;50.082;18.554;2024-03-29T05:28:48;97740.0;;;6.87;98.27
23361;BME280;11852;50.082;18.554;2024-03-29T05:29:52;97742.0;;;6.93;98.63
23361;BME280;11852;50.082;18.554;2024-03-29T05:30:57;97740.0;;;6.96;98.49
23361;BME280;11852;50.082;18.554;2024-03-29T05:32:03;97743.0;;;6.93;97.93
23361;BME280;11852;50.082;18.554;2024-03-29T05:33:07;97745.0;;;6.77;97.66
23361;BME280;11852;50.082;18.554;2024-03-29T05:34:12;97747.0;;;6.72;97.27
23361;BME280;11852;50.082;18.554;2024-03-29T05:35:17;97744.0;;;6.86;97.65
23361;BME280;11852;50.082;18.554;2024-03-29T05:36:22;97746.0;;;6.98;97.68
23361;BME280;11852;50.082;18.554;2024-03-29T05:37:27;97747.0;;;7.07;97.49
23361;BME280;11852;50.082;18.554;2024-03-29T05:38:32;97757.0;;;7.02;97.63
23361;BME280;11852;50.082;18.554;2024-03-29T05:39:37;97755.0;;;6.98;97.85
23361;BME280;11852;50.082;18.554;2024-03-29T05:40:41;97762.0;;;6.98;97.34
23361;BME280;11852;50.082;18.554;2024-03-29T05:41:46;97761.0;;;7.09;97.15
23361;BME280;11852;50.082;18.554;2024-03-29T05:42:51;97761.0;;;7.22;96.85
23361;BME280;11852;50.082;18.554;2024-03-29T05:43:56;97762.0;;;7.25;96.63
23361;BME280;11852;50.082;18.554;2024-03-29T05:45:01;97766.0;;;7.3;96.48
23361;BME280;11852;50.082;18.554;2024-03-29T05:46:06;97765.0;;;7.33;96.25
23361;BME280;11852;50.082;18.554;2024-03-29T05:47:11;97765.0;;;7.3;96.19
23361;BME280;11852;50.082;18.554;2024-03-29T05:48:16;97763.0;;;7.26;95.91
23361;BME280;11852;50.082;18.554;2024-03-29T05:49:20;97766.0;;;7.24;95.93
23361;BME280;11852;50.082;18.554;2024-03-29T05:50:26;97755.0;;;7.33;95.99